Time;durP1;ratioP1;P1;durP2;ratioP2;P2;SDS_P1;SDS_P2;PMS_P1;PMS_P2;Temp;Humidity;BMP_temperature;BMP_pressure;BME280_temperature;BME280_humidity;BME280_pressure;Samples;Min_cycle;Max_cycle;Signal;HPM_P1;HPM_P2
2021/06/16 00:00:55;;;;;;;5.95;1.65;;;;;;;15.16;60.28;101246.66;4904272;29;20054;-83
2021/06/16 00:03:26;;;;;;;6.47;1.45;;;;;;;15.12;60.35;101242.34;4866675;29;20134;-80
2021/06/16 00:06:04;;;;;;;3.70;2.33;;;;;;;15.07;60.95;101248.59;4893621;29;20047;-81
2021/06/16 00:08:36;;;;;;;4.05;2.20;;;;;;;15.02;60.83;101246.03;4883920;29;20440;-83
2021/06/16 00:11:07;;;;;;;4.03;2.00;;;;;;;14.95;61.42;101249.69;4892504;29;20390;-84
2021/06/16 00:13:34;;;;;;;5.78;2.08;;;;;;;14.91;61.57;101248.84;4908331;29;20103;-83
2021/06/16 00:16:02;;;;;;;6.32;2.13;;;;;;;14.89;61.45;101254.16;4894406;29;21134;-82
2021/06/16 00:18:31;;;;;;;4.78;1.45;;;;;;;14.86;61.71;101248.06;4895472;29;20403;-84
2021/06/16 00:21:00;;;;;;;4.63;1.77;;;;;;;14.84;62.10;101244.59;4898061;29;20487;-82
2021/06/16 00:23:32;;;;;;;6.68;1.88;;;;;;;14.85;62.10;101255.09;4876278;29;20056;-84
2021/06/16 00:25:59;;;;;;;7.55;1.90;;;;;;;14.84;62.35;101255.13;4881102;29;20463;-83
2021/06/16 00:28:25;;;;;;;2.83;1.50;;;;;;;14.82;62.39;101249.91;4893560;29;20056;-83
2021/06/16 00:30:52;;;;;;;6.35;2.15;;;;;;;14.78;62.48;101242.91;4889615;29;20040;-83
2021/06/16 00:33:21;;;;;;;4.15;1.90;;;;;;;14.77;63.07;101250.84;4876031;29;20056;-84
2021/06/16 00:35:47;;;;;;;3.97;1.88;;;;;;;14.74;63.00;101249.13;4902502;29;20443;-84
2021/06/16 00:38:16;;;;;;;4.47;1.65;;;;;;;14.68;63.04;101257.16;4884100;29;20498;-83
2021/06/16 00:40:46;;;;;;;3.13;1.45;;;;;;;14.63;63.40;101253.72;4895161;29;20055;-83
2021/06/16 00:43:13;;;;;;;5.65;1.70;;;;;;;14.59;63.18;101250.25;4887487;29;20404;-83
2021/06/16 00:45:40;;;;;;;7.82;2.20;;;;;;;14.56;63.92;101251.16;4896713;29;20059;-83
2021/06/16 00:48:08;;;;;;;4.50;1.50;;;;;;;14.52;64.17;101249.47;4872276;29;20610;-83
2021/06/16 00:50:38;;;;;;;3.67;1.27;;;;;;;14.51;64.40;101239.81;4884077;29;20048;-81
2021/06/16 00:53:07;;;;;;;4.55;1.48;;;;;;;14.50;64.00;101243.34;4890181;29;20047;-83
2021/06/16 00:55:38;;;;;;;3.45;1.30;;;;;;;14.46;64.01;101239.03;4881186;29;20060;-82
2021/06/16 00:58:13;;;;;;;3.75;1.45;;;;;;;14.45;64.63;101244.31;4884083;29;20099;-82
2021/06/16 01:00:53;;;;;;;8.25;1.52;;;;;;;14.45;64.86;101244.31;4888492;29;20139;-81
2021/06/16 01:03:40;;;;;;;4.60;2.30;;;;;;;14.43;64.53;101240.84;4894343;29;20658;-83
2021/06/16 01:06:28;;;;;;;6.47;1.60;;;;;;;14.36;64.59;101246.19;4886765;29;20052;-84
2021/06/16 01:09:20;;;;;;;4.00;1.77;;;;;;;14.33;65.07;101237.50;4897179;29;20043;-83
2021/06/16 01:12:18;;;;;;;5.53;1.85;;;;;;;14.31;65.28;101236.63;4878673;29;20103;-85
2021/06/16 01:14:54;;;;;;;4.80;1.58;;;;;;;14.29;65.19;101235.75;4906962;29;20130;-84
2021/06/16 01:17:26;;;;;;;5.95;1.70;;;;;;;14.29;65.35;101235.75;4874825;29;20623;-84
2021/06/16 01:20:25;;;;;;;5.35;1.85;;;;;;;14.27;65.99;101232.31;4882726;29;20139;-83
2021/06/16 01:22:59;;;;;;;3.92;1.92;;;;;;;14.27;65.64;101240.19;4891260;29;20051;-84
2021/06/16 01:25:35;;;;;;;2.92;1.20;;;;;;;14.27;65.89;101240.19;4886997;29;21072;-83
2021/06/16 01:28:03;;;;;;;4.38;1.40;;;;;;;14.22;65.72;101243.78;4893604;29;20107;-84
2021/06/16 01:30:33;;;;;;;7.65;2.65;;;;;;;14.19;66.27;101233.28;4875157;29;20054;-84
2021/06/16 01:33:07;;;;;;;5.55;1.73;;;;;;;14.17;66.16;101242.09;4897682;29;20048;-83
2021/06/16 01:35:46;;;;;;;3.88;1.73;;;;;;;14.11;66.01;101232.53;4874572;29;20239;-85
2021/06/16 01:38:16;;;;;;;3.90;1.20;;;;;;;14.07;66.24;101236.09;4893161;29;20535;-83
2021/06/16 01:40:46;;;;;;;2.35;2.15;;;;;;;14.02;66.61;101228.25;4890721;29;20059;-82
2021/06/16 01:43:14;;;;;;;3.97;1.90;;;;;;;13.98;66.67;101229.19;4898355;29;20131;-83
2021/06/16 01:45:43;;;;;;;3.13;1.73;;;;;;;13.96;67.34;101224.84;4877876;29;20492;-83
2021/06/16 01:48:17;;;;;;;2.08;1.35;;;;;;;13.92;66.91;101220.50;4876796;29;21823;-83
2021/06/16 01:50:48;;;;;;;5.13;1.95;;;;;;;13.88;67.37;101228.47;4878314;29;20060;-83
2021/06/16 01:53:17;;;;;;;9.52;2.15;;;;;;;13.84;67.40;101228.50;4886493;29;20044;-84
2021/06/16 01:55:45;;;;;;;3.53;2.03;;;;;;;13.82;67.99;101227.66;4890055;29;20052;-82
2021/06/16 01:58:12;;;;;;;4.53;2.33;;;;;;;13.77;67.65;101227.72;4906836;29;20671;-83
2021/06/16 02:00:42;;;;;;;6.35;1.90;;;;;;;13.75;68.03;101229.50;4873281;29;20063;-84
2021/06/16 02:03:11;;;;;;;3.58;1.50;;;;;;;13.71;67.93;101233.94;4882499;29;20048;-83
2021/06/16 02:05:41;;;;;;;4.38;2.13;;;;;;;13.68;68.17;101228.72;4890211;29;20166;-83
2021/06/16 02:08:23;;;;;;;2.67;1.55;;;;;;;13.66;68.00;101230.50;4908724;29;20122;-83
2021/06/16 02:10:55;;;;;;;3.83;1.80;;;;;;;13.64;68.08;101236.66;4909485;29;20052;-84
2021/06/16 02:13:46;;;;;;;3.13;2.38;;;;;;;13.61;69.04;101219.16;4904175;29;20090;-83
2021/06/16 02:16:15;;;;;;;4.18;2.60;;;;;;;13.62;68.79;101218.25;4894431;29;20064;-83
2021/06/16 02:19:05;;;;;;;5.82;2.90;;;;;;;13.62;68.92;101220.88;4885646;29;20396;-83
2021/06/16 02:21:33;;;;;;;4.00;1.75;;;;;;;13.59;68.79;101220.06;4890173;29;20058;-84
2021/06/16 02:24:03;;;;;;;5.80;2.25;;;;;;;13.56;68.98;101202.56;4874322;29;20074;-83
2021/06/16 02:26:30;;;;;;;4.82;2.17;;;;;;;13.55;68.55;101204.31;4878581;29;20051;-83
2021/06/16 02:28:57;;;;;;;4.28;1.75;;;;;;;13.53;68.58;101203.47;4900492;29;20051;-83
2021/06/16 02:31:24;;;;;;;2.60;1.77;;;;;;;13.51;68.35;101199.13;4890037;29;20513;-83
2021/06/16 02:33:54;;;;;;;3.97;2.15;;;;;;;13.48;68.72;101205.28;4909459;29;20088;-82
2021/06/16 02:36:23;;;;;;;5.82;2.25;;;;;;;13.46;69.07;101203.56;4880911;29;20048;-82
2021/06/16 02:39:02;;;;;;;3.67;1.88;;;;;;;13.44;69.54;101205.34;4886319;29;20059;-82
2021/06/16 02:41:33;;;;;;;6.07;1.88;;;;;;;13.40;69.21;101202.75;4896690;29;20051;-82
2021/06/16 02:44:03;;;;;;;3.42;1.83;;;;;;;13.37;69.09;101207.16;4898896;29;20043;-82
2021/06/16 02:46:36;;;;;;;2.75;1.65;;;;;;;13.34;69.12;101196.66;4887435;29;20055;-84
2021/06/16 02:52:24;;;;;;;3.78;2.13;;;;;;;13.22;69.30;101200.31;4814867;29;19924;-81
2021/06/16 02:55:06;;;;;;;3.20;1.60;;;;;;;13.21;70.10;101201.19;4864255;29;20047;-84
2021/06/16 02:57:36;;;;;;;6.60;2.72;;;;;;;13.18;70.64;101199.47;4896905;29;20064;-84
2021/06/16 03:00:38;;;;;;;6.03;1.83;;;;;;;13.15;69.80;101196.00;4875296;29;20069;-84
2021/06/16 03:07:09;;;;;;;3.20;2.30;;;;;;;13.06;70.21;101182.06;4863584;29;20052;-84
2021/06/16 03:09:42;;;;;;;4.30;2.15;;;;;;;13.08;70.62;101184.69;4895609;29;20049;-82
2021/06/16 03:12:10;;;;;;;4.95;2.60;;;;;;;13.08;70.31;101188.16;4886439;29;20040;-84
2021/06/16 03:14:38;;;;;;;4.82;2.05;;;;;;;13.08;70.17;101184.69;4891829;29;20510;-83
2021/06/16 03:17:08;;;;;;;4.03;2.10;;;;;;;13.05;70.41;101184.72;4872888;29;20157;-82
2021/06/16 03:19:36;;;;;;;8.48;2.65;;;;;;;13.03;70.67;101181.22;4887233;29;20043;-82
2021/06/16 03:22:05;;;;;;;4.40;2.05;;;;;;;13.03;70.54;101183.84;4875508;29;20066;-81
2021/06/16 03:24:35;;;;;;;4.40;1.83;;;;;;;13.01;70.79;101193.50;4890756;29;20051;-84
2021/06/16 03:27:05;;;;;;;7.25;2.45;;;;;;;12.98;70.71;101185.66;4893867;29;20547;-85
2021/06/16 03:29:40;;;;;;;6.60;2.58;;;;;;;12.93;71.26;101185.69;4923380;29;20050;-85
2021/06/16 03:32:09;;;;;;;5.53;2.55;;;;;;;12.93;71.38;101187.47;4909646;29;20317;-86
2021/06/16 03:34:38;;;;;;;5.65;2.25;;;;;;;12.91;71.25;101188.34;4898354;29;20487;-84
2021/06/16 03:37:12;;;;;;;3.78;1.60;;;;;;;12.91;71.32;101179.59;4894634;29;20057;-84
2021/06/16 03:39:40;;;;;;;6.28;2.38;;;;;;;12.87;71.47;101184.00;4894740;29;20039;-82
2021/06/16 03:42:36;;;;;;;7.32;2.08;;;;;;;12.86;72.13;101186.66;4876230;29;20214;-84
2021/06/16 03:45:10;;;;;;;5.45;1.95;;;;;;;12.88;71.68;101190.13;4896889;29;20059;-81
2021/06/16 03:47:43;;;;;;;;;;;;;;;12.89;72.20;101189.25;4875997;29;20039;-84
2021/06/16 03:50:27;;;;;;;4.18;1.63;;;;;;;12.91;71.41;101184.84;4890277;29;19941;-83
2021/06/16 03:52:57;;;;;;;4.35;2.35;;;;;;;12.93;71.56;101183.06;4893412;29;20490;-83
2021/06/16 03:55:25;;;;;;;6.22;2.08;;;;;;;12.98;71.34;101180.41;4877403;29;20114;-82
2021/06/16 03:58:01;;;;;;;5.35;2.50;;;;;;;13.04;71.23;101181.19;4869347;29;20567;-83
2021/06/16 04:00:36;;;;;;;4.00;2.30;;;;;;;13.08;71.08;101177.66;4873959;29;20376;-85
2021/06/16 04:03:10;;;;;;;6.90;2.67;;;;;;;13.13;70.65;101177.63;4881166;29;20395;-85
2021/06/16 04:05:39;;;;;;;6.50;2.40;;;;;;;13.17;70.86;101176.69;4895865;29;20192;-85
2021/06/16 04:08:08;;;;;;;8.77;2.42;;;;;;;13.23;70.66;101174.00;4878813;29;20115;-83
2021/06/16 04:11:14;;;;;;;;;;;;;;;13.29;71.07;101170.41;4893512;29;20062;-85
2021/06/16 04:13:46;;;;;;;6.78;2.58;;;;;;;13.35;70.38;101174.72;4880507;29;20392;-83
2021/06/16 04:16:13;;;;;;;4.65;2.17;;;;;;;13.38;70.14;101177.34;4892253;29;20513;-85
2021/06/16 04:18:42;;;;;;;2.88;2.47;;;;;;;13.43;70.34;101172.03;4884156;29;20044;-85
2021/06/16 04:21:17;;;;;;;4.97;2.42;;;;;;;13.49;69.98;101170.22;4894649;29;20055;-84
2021/06/16 04:23:46;;;;;;;5.70;3.05;;;;;;;13.54;70.00;101175.41;4886273;29;20440;-83
2021/06/16 04:26:15;;;;;;;5.63;2.38;;;;;;;13.62;69.68;101176.16;4877953;29;20052;-85
2021/06/16 04:28:46;;;;;;;6.18;2.45;;;;;;;13.66;69.66;101177.88;4886863;29;20095;-84
2021/06/16 04:31:18;;;;;;;2.53;2.17;;;;;;;13.75;68.83;101170.75;4888738;29;21364;-83
2021/06/16 04:33:46;;;;;;;3.50;2.20;;;;;;;13.81;68.96;101170.66;4895842;29;20062;-83
2021/06/16 04:36:24;;;;;;;6.10;2.53;;;;;;;13.88;68.58;101162.66;4891647;29;20081;-85
2021/06/16 04:38:53;;;;;;;6.15;2.95;;;;;;;13.95;68.08;101162.56;4894062;29;20031;-86
2021/06/16 04:44:16;;;;;;;7.30;2.22;;;;;;;14.03;67.97;101171.22;4895290;29;20067;-86
2021/06/16 04:46:47;;;;;;;5.63;2.67;;;;;;;14.10;67.66;101170.22;4873994;29;20063;-84
2021/06/16 04:49:17;;;;;;;4.18;2.72;;;;;;;14.18;67.46;101168.38;4900555;29;20048;-85
2021/06/16 04:51:47;;;;;;;6.30;2.33;;;;;;;14.29;67.29;101167.28;4898475;29;20064;-84
2021/06/16 04:54:17;;;;;;;6.22;2.30;;;;;;;14.29;66.98;101162.91;4890663;29;20063;-83
2021/06/16 04:56:45;;;;;;;9.55;3.60;;;;;;;14.33;66.97;101164.59;4891466;29;20398;-86
2021/06/16 04:59:14;;;;;;;3.67;2.65;;;;;;;14.39;66.89;101155.72;4907176;29;20044;-85
2021/06/16 05:01:48;;;;;;;6.65;2.47;;;;;;;14.47;66.78;101155.59;4887098;29;20059;-84
2021/06/16 05:04:15;;;;;;;5.40;2.67;;;;;;;14.53;66.89;101153.72;4888390;29;20047;-85
2021/06/16 05:06:44;;;;;;;5.07;2.40;;;;;;;14.60;66.80;101157.13;4898670;29;20634;-83
2021/06/16 05:09:22;;;;;;;5.95;2.63;;;;;;;14.67;66.00;101148.25;4880882;29;20031;-83
2021/06/16 05:11:52;;;;;;;5.28;2.63;;;;;;;14.73;65.99;101141.97;4889141;29;20111;-85
2021/06/16 05:14:24;;;;;;;4.85;2.60;;;;;;;14.79;65.80;101138.38;4887980;29;20048;-84
2021/06/16 05:16:54;;;;;;;5.70;3.50;;;;;;;14.84;65.50;101140.03;4897122;29;20059;-84
2021/06/16 05:19:24;;;;;;;3.83;2.78;;;;;;;14.86;65.67;101138.25;4904684;29;20628;-83
2021/06/16 05:21:56;;;;;;;11.05;2.80;;;;;;;14.91;65.30;101139.91;4885086;29;20056;-83
2021/06/16 05:24:27;;;;;;;8.60;2.67;;;;;;;14.95;65.57;101142.44;4882079;29;20047;-83
2021/06/16 05:26:59;;;;;;;3.13;2.15;;;;;;;15.01;65.33;101136.19;4896647;29;20733;-84
2021/06/16 05:29:26;;;;;;;4.50;2.72;;;;;;;15.07;65.21;101137.84;4878543;29;21077;-84
2021/06/16 05:31:54;;;;;;;4.28;2.63;;;;;;;15.10;65.04;101136.00;4885237;29;20666;-84
2021/06/16 05:34:21;;;;;;;6.38;3.10;;;;;;;15.18;64.63;101131.44;4894690;29;20052;-83
2021/06/16 05:36:48;;;;;;;6.32;2.63;;;;;;;15.28;64.47;101125.97;4879670;29;21273;-84
2021/06/16 05:39:16;;;;;;;5.63;2.63;;;;;;;15.32;64.06;101131.16;4894919;29;20131;-84
2021/06/16 05:41:48;;;;;;;8.85;3.47;;;;;;;15.33;63.78;101130.28;4892119;29;20060;-85
2021/06/16 05:44:15;;;;;;;6.90;2.60;;;;;;;15.36;63.94;101127.56;4879550;29;20051;-84
2021/06/16 05:46:44;;;;;;;8.00;3.30;;;;;;;15.42;63.67;101133.59;4879310;29;20119;-84
2021/06/16 05:49:16;;;;;;;8.95;2.67;;;;;;;15.45;63.50;101122.97;4886322;29;20056;-84
2021/06/16 05:51:43;;;;;;;5.32;2.38;;;;;;;15.47;63.51;101129.09;4884483;29;20055;-84
2021/06/16 05:54:13;;;;;;;5.85;3.13;;;;;;;15.49;63.37;101128.16;4900494;29;20047;-83
2021/06/16 05:56:44;;;;;;;3.83;2.65;;;;;;;15.53;63.31;101124.56;4898905;29;20052;-84
2021/06/16 05:59:13;;;;;;;6.90;3.08;;;;;;;15.59;63.02;101125.31;4911585;29;20059;-84
2021/06/16 06:01:42;;;;;;;5.35;3.17;;;;;;;15.65;63.14;101125.19;4891221;29;20134;-85
2021/06/16 06:04:11;;;;;;;7.32;3.53;;;;;;;15.75;63.15;101118.81;4880555;29;20043;-84
2021/06/16 06:06:42;;;;;;;9.43;3.33;;;;;;;15.81;62.69;101129.25;4886698;29;20052;-86
2021/06/16 06:14:52;;;;;;;10.13;2.80;;;;;;;15.96;62.59;101113.97;4888927;29;20403;-83
2021/06/16 06:17:39;;;;;;;6.47;2.47;;;;;;;16.02;62.54;101116.44;4894819;29;20338;-85
2021/06/16 06:20:15;;;;;;;7.35;2.80;;;;;;;16.06;62.54;101104.91;4885708;29;20048;-83
2021/06/16 06:30:51;;;;;;;6.63;4.18;;;;;;;16.48;61.83;101101.22;4885341;29;20063;-87
2021/06/16 06:33:22;;;;;;;;;;;;;;;16.58;61.81;101091.25;4904538;29;20060;-85
2021/06/16 06:35:50;;;;;;;5.78;2.55;;;;;;;16.74;61.21;101102.25;4916819;29;19931;-84
2021/06/16 06:38:29;;;;;;;;;;;;;;;;;;;;;
2021/06/16 06:40:59;;;;;;;5.97;1.85;;;;;;;16.89;60.75;101098.34;4916276;29;20072;-83
2021/06/16 06:46:12;;;;;;;8.07;2.67;;;;;;;17.04;60.18;101100.59;4882595;29;20039;-84
2021/06/16 06:48:47;;;;;;;5.20;2.30;;;;;;;17.07;60.53;101097.84;4901104;29;20048;-85
2021/06/16 06:54:53;;;;;;;4.85;1.98;;;;;;;17.27;60.03;101091.94;4893994;29;20110;-84
2021/06/16 06:57:21;;;;;;;2.58;2.22;;;;;;;17.41;60.03;101085.41;4908255;29;20546;-84
2021/06/16 06:59:59;;;;;;;6.25;2.20;;;;;;;17.53;59.80;101085.91;4880603;29;20066;-83
2021/06/16 07:02:39;;;;;;;4.40;2.10;;;;;;;17.64;59.13;101093.50;4888380;29;20046;-83
2021/06/16 07:08:02;;;;;;;6.75;2.30;;;;;;;17.78;58.84;101085.13;4887534;29;20056;-85
2021/06/16 07:10:40;;;;;;;6.75;3.15;;;;;;;17.85;58.31;101080.47;4899009;29;20043;-84
2021/06/16 07:13:07;;;;;;;7.68;2.83;;;;;;;17.91;58.54;101084.69;4874651;29;20044;-85
2021/06/16 07:15:38;;;;;;;3.67;2.60;;;;;;;17.98;58.48;101075.69;4894069;29;20058;-84
2021/06/16 07:20:47;;;;;;;3.10;2.00;;;;;;;18.27;57.61;101068.53;4908509;29;20043;-84
2021/06/16 07:26:00;;;;;;;3.03;2.10;;;;;;;18.66;56.65;101082.16;4896444;29;20051;-85
2021/06/16 07:28:30;;;;;;;5.80;1.90;;;;;;;19.03;55.78;101072.00;4882429;29;20527;-82
2021/06/16 07:30:57;;;;;;;5.70;2.53;;;;;;;19.60;54.72;101075.13;4895991;29;20052;-84
2021/06/16 07:36:58;;;;;;;8.45;2.88;;;;;;;21.15;50.47;101060.56;4874149;29;20114;-83
2021/06/16 07:39:39;;;;;;;4.82;1.88;;;;;;;21.70;49.15;101059.72;4893769;29;20060;-83
2021/06/16 07:42:10;;;;;;;8.93;2.10;;;;;;;22.32;47.38;101053.97;4910931;29;20055;-83
2021/06/16 07:47:29;;;;;;;4.38;1.55;;;;;;;23.68;45.48;101059.97;4896391;29;20513;-85
2021/06/16 07:49:57;;;;;;;5.43;2.20;;;;;;;24.36;43.90;101058.66;4889991;29;20108;-84
2021/06/16 07:52:32;;;;;;;7.95;3.80;;;;;;;24.81;42.07;101049.75;4910907;29;20083;-84
2021/06/16 07:55:18;;;;;;;8.43;1.83;;;;;;;25.09;41.57;101048.84;4900777;29;20050;-85
2021/06/16 07:57:54;;;;;;;2.53;1.80;;;;;;;25.40;40.46;101055.81;4901452;29;20588;-85
2021/06/16 08:01:49;;;;;;;5.07;1.88;;;;;;;25.61;39.85;101057.19;4899157;29;20056;-83
2021/06/16 08:04:25;;;;;;;4.60;2.08;;;;;;;26.23;38.73;101048.56;4919151;29;20048;-84
2021/06/16 08:06:52;;;;;;;3.83;1.98;;;;;;;26.41;37.52;101047.31;4904802;29;20068;-85
2021/06/16 08:12:18;;;;;;;3.97;1.73;;;;;;;26.80;36.56;101049.13;5120625;27;20124;-86
2021/06/16 08:20:28;;;;;;;3.17;1.73;;;;;;;28.08;34.91;101049.66;5028195;28;20140;-84
2021/06/16 08:23:09;;;;;;;2.67;1.60;;;;;;;28.68;33.74;101051.25;5035954;28;20515;-85
2021/06/16 08:25:40;;;;;;;5.07;2.30;;;;;;;29.01;32.82;101044.13;5029196;28;20114;-85
2021/06/16 08:28:14;;;;;;;4.43;2.55;;;;;;;29.32;32.81;101046.16;5026636;28;20204;-85
2021/06/16 08:34:38;;;;;;;3.92;2.83;;;;;;;30.12;30.47;101035.94;5033840;28;20045;-85
2021/06/16 08:37:13;;;;;;;4.93;2.38;;;;;;;30.16;31.12;101037.38;5020592;28;20060;-86
2021/06/16 08:39:41;;;;;;;2.90;1.98;;;;;;;30.29;31.19;101029.09;5030343;28;20049;-86
2021/06/16 08:42:16;;;;;;;5.97;3.15;;;;;;;30.36;30.20;101023.03;5022164;28;20051;-85
2021/06/16 08:45:02;;;;;;;3.35;2.28;;;;;;;30.13;30.07;101024.13;5027847;28;20040;-85
2021/06/16 08:48:00;;;;;;;3.30;2.47;;;;;;;30.49;30.44;101022.84;5046922;28;20043;-86
2021/06/16 08:51:06;;;;;;;3.38;2.60;;;;;;;30.86;30.11;101021.41;5015477;28;20533;-85
2021/06/16 08:56:29;;;;;;;5.55;2.80;;;;;;;31.50;28.52;101016.56;5048651;28;20052;-85
2021/06/16 08:59:14;;;;;;;5.13;2.42;;;;;;;32.19;28.56;101012.00;5048745;28;20642;-84
2021/06/16 09:02:54;;;;;;;4.25;2.58;;;;;;;33.23;27.11;101008.25;5033797;28;21003;-85
2021/06/16 09:05:55;;;;;;;5.82;3.60;;;;;;;33.60;25.87;101011.84;5048987;28;20052;-87
2021/06/16 09:08:33;;;;;;;6.47;2.85;;;;;;;33.76;26.05;101005.69;5046045;28;20539;-86
2021/06/16 09:11:18;;;;;;;;;;;;;;;;;;;;;
2021/06/16 09:13:54;;;;;;;4.70;2.70;;;;;;;33.78;25.60;101003.66;5057956;28;20044;-86
2021/06/16 09:17:05;;;;;;;8.88;2.97;;;;;;;34.12;25.38;101002.94;5048526;28;20574;-86
2021/06/16 09:22:52;;;;;;;5.00;2.42;;;;;;;34.95;23.72;101004.19;5042121;28;20114;-87
2021/06/16 09:25:26;;;;;;;6.20;2.53;;;;;;;34.79;24.31;100999.53;5039996;28;20311;-85
2021/06/16 09:27:55;;;;;;;3.90;2.35;;;;;;;35.22;24.06;100996.78;5000725;28;20045;-86
2021/06/16 09:30:23;;;;;;;7.28;2.45;;;;;;;35.40;23.95;100991.25;5011969;28;20044;-86
2021/06/16 09:33:09;;;;;;;4.72;2.92;;;;;;;34.89;24.06;100997.56;5034446;28;20056;-85
2021/06/16 09:35:55;;;;;;;3.67;2.35;;;;;;;34.56;24.08;100997.41;5010347;28;20040;-85
2021/06/16 09:38:34;;;;;;;5.15;2.80;;;;;;;34.89;24.17;100986.69;5028269;28;20048;-87
2021/06/16 09:41:03;;;;;;;7.00;3.15;;;;;;;35.23;23.77;100990.34;5042506;28;20053;-86
2021/06/16 09:43:37;;;;;;;6.10;2.63;;;;;;;35.53;23.41;100990.75;5037410;28;20053;-86
2021/06/16 09:46:10;;;;;;;4.68;2.70;;;;;;;35.77;23.30;100987.13;5027510;28;20310;-87
2021/06/16 09:48:46;;;;;;;4.10;2.75;;;;;;;36.06;22.62;100983.91;5036679;28;20152;-85
2021/06/16 09:51:29;;;;;;;19.38;4.22;;;;;;;36.64;21.91;100986.44;5030835;28;20045;-86
2021/06/16 09:54:15;;;;;;;5.72;3.08;;;;;;;37.27;21.74;100983.72;5031898;28;20215;-86
2021/06/16 09:57:09;;;;;;;2.97;2.13;;;;;;;37.11;21.44;100972.94;5018168;28;20056;-86
2021/06/16 09:59:45;;;;;;;6.13;3.30;;;;;;;37.33;21.17;100976.72;5042245;28;20711;-85
2021/06/16 10:02:31;;;;;;;6.07;3.53;;;;;;;37.49;20.75;100979.31;5017285;28;20041;-88
2021/06/16 10:05:06;;;;;;;3.53;3.10;;;;;;;37.56;20.75;100980.28;5061545;28;20061;-87
2021/06/16 10:07:37;;;;;;;3.45;3.15;;;;;;;37.61;21.09;100979.72;5033519;28;20050;-87
2021/06/16 10:10:10;;;;;;;3.13;2.80;;;;;;;37.67;20.84;100978.97;5045228;28;20080;-89
2021/06/16 10:12:47;;;;;;;5.68;3.40;;;;;;;37.88;20.45;100978.28;5025116;28;20053;-87
2021/06/16 10:15:26;;;;;;;5.35;2.47;;;;;;;37.95;20.70;100972.09;5031863;28;20045;-85
2021/06/16 10:17:54;;;;;;;4.90;3.38;;;;;;;38.22;20.12;100971.41;4997538;28;20143;-87
2021/06/16 10:20:27;;;;;;;3.55;3.08;;;;;;;38.22;20.89;100962.38;5033908;28;20519;-87
2021/06/16 10:23:00;;;;;;;5.50;2.78;;;;;;;38.68;20.33;100964.91;5037881;28;20044;-85
2021/06/16 10:25:32;;;;;;;4.03;2.75;;;;;;;38.40;20.10;100959.28;5033493;28;20590;-85
2021/06/16 10:28:06;;;;;;;5.35;2.50;;;;;;;38.69;20.34;100955.66;5011201;28;20045;-87
2021/06/16 10:30:43;;;;;;;6.43;4.68;;;;;;;38.83;20.33;100958.59;4996505;28;20045;-88
2021/06/16 10:33:43;;;;;;;7.75;3.58;;;;;;;39.16;19.74;100960.81;5009021;28;20419;-88
2021/06/16 10:36:22;;;;;;;5.75;3.35;;;;;;;39.47;19.83;100963.22;5023758;28;20052;-88
2021/06/16 10:39:01;;;;;;;4.65;3.60;;;;;;;39.01;20.14;100959.00;5008949;28;20081;-86
2021/06/16 10:42:00;;;;;;;4.63;3.45;;;;;;;38.66;20.32;100963.41;5045122;28;20071;-88
2021/06/16 10:44:31;;;;;;;9.00;3.65;;;;;;;39.03;20.68;100962.34;5028103;28;21459;-88
2021/06/16 10:47:07;;;;;;;4.72;4.05;;;;;;;39.09;20.31;100957.16;5020147;28;20419;-87
2021/06/16 10:49:55;;;;;;;5.05;3.20;;;;;;;39.13;20.24;100955.75;5032333;28;20118;-85
2021/06/16 10:52:31;;;;;;;5.53;3.72;;;;;;;38.86;20.73;100960.94;5019393;28;20036;-86
2021/06/16 10:55:04;;;;;;;4.63;3.70;;;;;;;39.84;19.90;100947.53;5047440;28;20036;-89
2021/06/16 10:57:38;;;;;;;5.90;4.60;;;;;;;40.08;19.32;100950.00;5018113;28;20071;-87
2021/06/16 11:00:14;;;;;;;4.38;3.97;;;;;;;40.39;19.28;100946.81;5037028;28;20045;-86
2021/06/16 11:02:42;;;;;;;4.65;4.18;;;;;;;40.09;19.34;100948.97;5028245;28;20072;-88
2021/06/16 11:05:29;;;;;;;8.32;3.58;;;;;;;40.40;19.25;100947.66;5034855;28;20068;-88
2021/06/16 11:07:59;;;;;;;5.43;3.42;;;;;;;40.33;19.31;100933.91;5037673;28;20065;-87
2021/06/16 11:10:56;;;;;;;4.88;3.95;;;;;;;40.17;19.34;100935.09;5026487;28;20049;-89
2021/06/16 11:13:42;;;;;;;4.22;3.13;;;;;;;40.40;19.24;100923.78;5005420;28;20095;-85
2021/06/16 11:16:48;;;;;;;5.93;3.22;;;;;;;40.70;19.41;100922.66;5032255;28;20052;-86
2021/06/16 11:19:43;;;;;;;3.97;3.67;;;;;;;40.58;19.63;100927.91;5018665;28;20661;-87
2021/06/16 11:22:17;;;;;;;4.70;4.30;;;;;;;40.77;19.26;100915.28;5027043;28;20072;-86
2021/06/16 11:25:09;;;;;;;4.10;3.70;;;;;;;41.03;19.11;100910.94;5032348;28;20055;-85
2021/06/16 11:27:59;;;;;;;5.53;3.63;;;;;;;41.07;18.92;100917.69;5041047;28;20108;-87
2021/06/16 11:30:58;;;;;;;6.45;4.70;;;;;;;40.67;19.35;100912.94;5031721;28;20049;-86
2021/06/16 11:33:33;;;;;;;7.20;4.78;;;;;;;40.54;19.69;100904.69;5027794;28;20186;-86
2021/06/16 11:36:43;;;;;;;5.68;4.18;;;;;;;41.04;19.06;100894.25;5031524;28;20124;-87
2021/06/16 11:39:46;;;;;;;5.97;4.32;;;;;;;41.63;18.66;100888.94;5026599;28;20146;-86
2021/06/16 11:42:15;;;;;;;9.82;4.68;;;;;;;41.37;19.04;100887.91;5025993;28;20064;-85
2021/06/16 11:44:42;;;;;;;5.95;4.32;;;;;;;41.38;19.04;100886.00;5039998;28;20045;-85
2021/06/16 11:47:15;;;;;;;7.70;4.18;;;;;;;42.05;18.38;100891.41;5025696;28;20053;-87
2021/06/16 11:49:42;;;;;;;5.63;4.43;;;;;;;42.18;17.87;100880.38;5030111;28;20052;-84
2021/06/16 11:52:28;;;;;;;5.47;4.43;;;;;;;41.70;18.85;100880.72;5009850;28;20037;-87
2021/06/16 11:54:56;;;;;;;6.00;4.25;;;;;;;41.61;18.64;100869.94;5030004;28;20048;-86
2021/06/16 11:57:31;;;;;;;5.35;4.75;;;;;;;42.27;18.02;100873.56;5027643;28;20116;-85
2021/06/16 12:00:01;;;;;;;6.47;4.63;;;;;;;41.81;18.74;100867.16;5032170;28;20143;-85
2021/06/16 12:02:33;;;;;;;6.28;4.43;;;;;;;41.92;18.55;100862.91;5002267;28;20083;-85
2021/06/16 12:05:13;;;;;;;6.45;4.25;;;;;;;41.90;17.99;100856.75;5022916;28;20045;-86
2021/06/16 12:07:52;;;;;;;4.82;4.00;;;;;;;42.40;17.92;100856.16;5027987;28;20071;-86
2021/06/16 12:10:29;;;;;;;6.75;5.10;;;;;;;42.60;17.55;100849.69;5006558;28;20051;-87
2021/06/16 12:13:06;;;;;;;5.80;4.95;;;;;;;43.12;17.79;100841.28;5042501;28;20490;-88
2021/06/16 12:15:42;;;;;;;4.55;3.92;;;;;;;43.27;17.42;100840.91;4999249;28;20158;-86
2021/06/16 12:18:16;;;;;;;7.32;3.78;;;;;;;43.52;17.03;100834.53;5016413;28;20064;-85
2021/06/16 12:21:03;;;;;;;5.30;3.78;;;;;;;43.81;16.69;100837.59;5017040;28;20118;-85
2021/06/16 12:29:07;;;;;;;7.57;4.38;;;;;;;43.32;17.37;100829.22;5020257;28;20047;-85
2021/06/16 12:31:41;;;;;;;4.10;3.80;;;;;;;43.16;17.14;100825.16;5025790;28;20466;-85
2021/06/16 12:46:34;;;;;;;5.57;4.65;;;;;;;44.29;16.48;100817.50;4897997;29;20080;-86
2021/06/16 12:53:25;;;;;;;4.50;4.13;;;;;;;43.46;16.61;100812.31;5022148;28;20080;-85
2021/06/16 12:56:02;;;;;;;5.65;4.05;;;;;;;43.17;16.90;100805.63;5029420;28;20652;-86
2021/06/16 13:01:26;;;;;;;4.20;3.90;;;;;;;44.31;16.23;100797.97;5017963;28;21307;-85
2021/06/16 13:04:04;;;;;;;5.05;4.35;;;;;;;44.20;16.50;100799.56;5026562;28;20658;-86
2021/06/16 13:06:34;;;;;;;4.53;3.60;;;;;;;44.06;16.60;100791.47;5044180;28;20053;-85
2021/06/16 13:09:14;;;;;;;4.65;4.25;;;;;;;44.72;16.18;100793.50;5006239;28;20194;-88
2021/06/16 13:11:41;;;;;;;5.55;3.90;;;;;;;44.98;15.70;100785.84;5038797;28;20511;-87
2021/06/16 13:14:27;;;;;;;5.18;3.95;;;;;;;44.37;16.12;100788.72;5036584;28;20225;-87
2021/06/16 13:17:05;;;;;;;6.95;4.38;;;;;;;44.12;16.59;100795.22;5020624;28;20120;-86
2021/06/16 13:19:57;;;;;;;5.75;3.60;;;;;;;43.71;16.80;100781.09;5045089;28;20064;-87
2021/06/16 13:22:56;;;;;;;5.45;3.90;;;;;;;42.96;17.37;100787.56;5051897;28;20043;-86
2021/06/16 13:25:34;;;;;;;4.38;3.97;;;;;;;43.52;16.93;100784.94;5024578;28;20072;-86
2021/06/16 13:28:38;;;;;;;4.95;4.38;;;;;;;44.09;16.32;100779.16;5022871;28;20122;-87
2021/06/16 13:31:24;;;;;;;5.18;3.67;;;;;;;44.78;16.00;100786.22;5045017;28;20048;-87
2021/06/16 13:37:13;;;;;;;3.78;3.55;;;;;;;44.52;16.37;100778.09;5027510;28;20605;-88
2021/06/16 13:43:31;;;;;;;5.45;3.83;;;;;;;43.39;17.24;100770.22;5038525;28;20454;-86